Time;durP1;ratioP1;P1;durP2;ratioP2;P2;SDS_P1;SDS_P2;PMS_P1;PMS_P2;Temp;Humidity;BMP_temperature;BMP_pressure;BME280_temperature;BME280_humidity;BME280_pressure;Samples;Min_cycle;Max_cycle;Signal;HPM_P1;HPM_P2
2023/09/25 00:01:36;;;;;;;5.57;2.23;;;14.70;99.90;;;;;;7292559;19;21120;-93
2023/09/25 00:04:03;;;;;;;5.23;2.30;;;14.70;99.90;;;;;;7292235;19;20195;-91
2023/09/25 00:06:29;;;;;;;7.13;2.27;;;14.70;99.90;;;;;;7301496;19;20193;-92
2023/09/25 00:08:55;;;;;;;7.63;2.87;;;14.80;99.90;;;;;;7314242;19;20190;-93
2023/09/25 00:11:21;;;;;;;7.17;2.70;;;14.80;99.90;;;;;;7293632;19;20187;-92
2023/09/25 00:13:47;;;;;;;9.30;2.70;;;14.80;99.90;;;;;;7294486;19;20207;-92
2023/09/25 00:16:14;;;;;;;7.43;2.43;;;14.80;99.90;;;;;;7302166;19;20188;-93
2023/09/25 00:18:41;;;;;;;8.60;2.60;;;14.80;99.90;;;;;;7300897;19;20195;-92
2023/09/25 00:21:07;;;;;;;7.53;2.40;;;14.80;99.90;;;;;;7300640;19;20199;-92
2023/09/25 00:23:33;;;;;;;6.47;2.50;;;14.70;99.90;;;;;;7298610;19;20175;-92
2023/09/25 00:26:06;;;;;;;9.27;2.60;;;14.70;99.90;;;;;;7296533;19;20195;-92
2023/09/25 00:28:32;;;;;;;7.13;2.53;;;14.80;99.90;;;;;;7293656;19;20196;-90
2023/09/25 00:30:58;;;;;;;7.07;2.60;;;14.80;99.90;;;;;;7311074;19;20186;-92
2023/09/25 00:33:24;;;;;;;8.97;2.77;;;14.80;99.90;;;;;;7309865;19;20284;-94
2023/09/25 00:35:50;;;;;;;9.50;2.47;;;14.70;99.90;;;;;;7293319;19;20198;-92
2023/09/25 00:38:16;;;;;;;9.23;2.60;;;14.70;99.90;;;;;;7291963;19;20191;-91
2023/09/25 00:40:42;;;;;;;7.73;2.40;;;14.70;99.90;;;;;;7292973;19;20187;-92
2023/09/25 00:43:12;;;;;;;6.30;2.40;;;14.70;99.90;;;;;;7291366;19;20229;-92
2023/09/25 00:45:41;;;;;;;7.67;2.83;;;14.70;99.90;;;;;;7292523;19;20190;-92
2023/09/25 00:48:24;;;;;;;6.30;2.33;;;14.70;99.90;;;;;;7291075;19;20207;-92
2023/09/25 00:50:51;;;;;;;7.50;2.57;;;14.60;99.90;;;;;;7290437;19;20188;-92
2023/09/25 00:53:17;;;;;;;5.97;2.07;;;14.60;99.90;;;;;;7292083;19;20661;-91
2023/09/25 00:55:43;;;;;;;6.83;2.53;;;14.60;99.90;;;;;;7291838;19;20182;-92
2023/09/25 00:58:11;;;;;;;8.83;2.40;;;14.60;99.90;;;;;;7289994;19;20213;-92
2023/09/25 01:00:38;;;;;;;5.13;2.33;;;14.60;99.90;;;;;;7290660;19;20752;-91
2023/09/25 01:03:04;;;;;;;7.60;2.73;;;14.60;99.90;;;;;;7291083;19;20190;-92
2023/09/25 01:05:32;;;;;;;5.83;2.50;;;14.60;99.90;;;;;;7291768;19;20180;-91
2023/09/25 01:07:59;;;;;;;8.37;2.20;;;14.60;99.90;;;;;;7305261;19;20598;-91
2023/09/25 01:10:26;;;;;;;6.07;2.33;;;14.70;99.90;;;;;;7329402;19;20187;-91
2023/09/25 01:12:53;;;;;;;5.97;2.30;;;14.70;99.90;;;;;;7309999;19;20186;-92
2023/09/25 01:15:19;;;;;;;7.03;2.40;;;14.60;99.90;;;;;;7298562;19;20198;-91
2023/09/25 01:17:45;;;;;;;5.87;1.93;;;14.60;99.90;;;;;;7292375;19;20189;-93
2023/09/25 01:20:14;;;;;;;6.57;2.27;;;14.60;99.90;;;;;;7291584;19;20197;-92
2023/09/25 01:22:40;;;;;;;8.77;2.57;;;14.50;99.90;;;;;;7290335;19;20280;-90
2023/09/25 01:25:10;;;;;;;8.03;2.27;;;14.50;99.90;;;;;;7290541;19;20193;-92
2023/09/25 01:27:37;;;;;;;8.47;2.50;;;14.50;99.90;;;;;;7291819;19;20202;-90
2023/09/25 01:30:05;;;;;;;6.70;2.27;;;14.50;99.90;;;;;;7290269;19;20186;-92
2023/09/25 01:32:31;;;;;;;7.97;2.20;;;14.60;99.90;;;;;;7290087;19;20190;-93
2023/09/25 01:34:57;;;;;;;8.43;2.57;;;14.50;99.90;;;;;;7312943;19;20193;-91
2023/09/25 01:37:23;;;;;;;9.07;2.87;;;14.60;99.90;;;;;;7292148;19;20190;-91
2023/09/25 01:39:48;;;;;;;6.50;2.37;;;14.60;99.90;;;;;;7290693;19;20211;-91
2023/09/25 01:42:14;;;;;;;6.50;2.50;;;14.60;99.90;;;;;;7290612;19;20193;-91
2023/09/25 01:44:40;;;;;;;6.23;2.53;;;14.60;99.90;;;;;;7289857;19;20655;-91
2023/09/25 01:47:06;;;;;;;8.53;2.67;;;14.50;99.90;;;;;;7290455;19;20215;-91
2023/09/25 01:49:33;;;;;;;5.90;2.13;;;14.50;99.90;;;;;;7289315;19;20189;-92
2023/09/25 01:52:07;;;;;;;10.17;2.80;;;14.50;99.90;;;;;;7307773;19;20265;-92
2023/09/25 01:54:32;;;;;;;9.37;2.40;;;14.50;99.90;;;;;;7290278;19;20202;-91
2023/09/25 01:57:04;;;;;;;7.03;2.47;;;14.60;99.90;;;;;;7308602;19;20185;-92
2023/09/25 01:59:30;;;;;;;9.33;2.70;;;14.50;99.90;;;;;;7292673;19;20203;-93
2023/09/25 02:01:58;;;;;;;8.03;2.47;;;14.50;99.90;;;;;;7311644;19;20191;-93
2023/09/25 02:04:24;;;;;;;7.43;2.50;;;14.50;99.90;;;;;;7290676;19;20197;-92
2023/09/25 02:06:49;;;;;;;7.30;2.27;;;14.50;99.90;;;;;;7291130;19;20191;-91
2023/09/25 02:09:15;;;;;;;8.50;2.60;;;14.50;99.90;;;;;;7289976;19;20234;-92
2023/09/25 02:11:41;;;;;;;10.03;3.23;;;14.60;99.90;;;;;;7292885;19;20278;-91
2023/09/25 02:14:07;;;;;;;6.23;2.47;;;14.60;99.90;;;;;;7304242;19;20238;-92
2023/09/25 02:16:33;;;;;;;8.70;2.90;;;14.60;99.90;;;;;;7302553;19;20187;-91
2023/09/25 02:18:58;;;;;;;8.97;2.40;;;14.60;99.90;;;;;;7315857;19;20622;-91
2023/09/25 02:21:25;;;;;;;6.60;2.17;;;14.60;99.90;;;;;;7298388;19;20226;-91
2023/09/25 02:23:51;;;;;;;6.67;2.50;;;14.60;99.90;;;;;;7294892;19;20186;-91
2023/09/25 02:26:27;;;;;;;7.27;2.50;;;14.60;99.90;;;;;;7294776;19;20198;-90
2023/09/25 02:28:54;;;;;;;7.43;2.30;;;14.60;99.90;;;;;;7296213;19;20294;-91
2023/09/25 02:31:20;;;;;;;5.93;2.10;;;14.60;99.90;;;;;;7302303;19;20320;-92
2023/09/25 02:33:45;;;;;;;6.57;2.20;;;14.60;99.90;;;;;;7294170;19;20176;-92
2023/09/25 02:36:12;;;;;;;5.67;2.20;;;14.60;99.90;;;;;;7288547;19;20192;-92
2023/09/25 02:38:38;;;;;;;6.53;2.50;;;14.50;99.90;;;;;;7288575;19;20198;-91
2023/09/25 02:41:15;;;;;;;6.80;2.20;;;14.50;99.90;;;;;;7287088;19;20181;-91
2023/09/25 02:43:50;;;;;;;5.40;2.10;;;14.50;99.90;;;;;;7288116;19;20662;-93
2023/09/25 02:46:15;;;;;;;6.67;2.27;;;14.60;99.90;;;;;;7288161;19;20180;-92
2023/09/25 02:48:49;;;;;;;5.43;2.43;;;14.60;99.90;;;;;;7289057;19;20264;-91
2023/09/25 02:51:17;;;;;;;5.40;2.10;;;14.60;99.90;;;;;;7288106;19;20244;-91
2023/09/25 02:53:45;;;;;;;4.33;1.60;;;14.70;99.90;;;;;;7287887;19;20189;-90
2023/09/25 02:56:11;;;;;;;8.20;2.20;;;14.70;99.90;;;;;;7286910;19;20231;-91
2023/09/25 02:58:37;;;;;;;4.77;2.10;;;14.60;99.90;;;;;;7286885;19;20194;-91
2023/09/25 03:01:03;;;;;;;6.63;2.07;;;14.70;99.90;;;;;;7289298;19;20191;-90
2023/09/25 03:03:29;;;;;;;7.07;2.17;;;14.60;99.90;;;;;;7311967;19;20729;-87
2023/09/25 03:05:55;;;;;;;6.90;2.10;;;14.60;99.90;;;;;;7301973;19;20190;-90
2023/09/25 03:08:21;;;;;;;6.83;2.30;;;14.60;99.90;;;;;;7288779;19;20225;-91
2023/09/25 03:10:47;;;;;;;6.93;2.20;;;14.60;99.90;;;;;;7287487;19;20184;-92
2023/09/25 03:13:13;;;;;;;4.80;2.00;;;14.60;99.90;;;;;;7287248;19;20246;-91
2023/09/25 03:15:39;;;;;;;6.87;1.97;;;14.70;99.90;;;;;;7289598;19;20186;-91
2023/09/25 03:18:05;;;;;;;8.60;2.80;;;14.60;99.90;;;;;;7287021;19;20191;-91
2023/09/25 03:20:31;;;;;;;7.40;2.33;;;14.50;99.90;;;;;;7288111;19;20211;-90
2023/09/25 03:22:57;;;;;;;6.03;2.00;;;14.40;99.90;;;;;;7308444;19;20181;-91
2023/09/25 03:25:23;;;;;;;6.30;2.10;;;14.40;99.90;;;;;;7286918;19;20192;-90
2023/09/25 03:27:49;;;;;;;6.20;2.00;;;14.40;99.90;;;;;;7288318;19;21236;-90
2023/09/25 03:30:16;;;;;;;6.10;1.83;;;14.40;99.90;;;;;;7290328;19;20191;-91
2023/09/25 03:32:43;;;;;;;4.87;1.93;;;14.50;99.90;;;;;;7295023;19;20187;-90
2023/09/25 03:35:12;;;;;;;7.30;2.00;;;14.60;99.90;;;;;;7293941;19;20191;-92
2023/09/25 03:37:37;;;;;;;5.43;1.90;;;14.50;99.90;;;;;;7294238;19;20559;-92
2023/09/25 03:40:08;;;;;;;7.10;1.77;;;14.50;99.90;;;;;;7296323;19;20181;-91
2023/09/25 03:42:34;;;;;;;4.73;1.60;;;14.50;99.90;;;;;;7310972;19;20204;-91
2023/09/25 03:45:01;;;;;;;4.30;1.90;;;14.60;99.90;;;;;;7313172;19;20190;-91
2023/09/25 03:47:27;;;;;;;4.93;1.93;;;14.50;99.90;;;;;;7335230;19;20214;-89
2023/09/25 03:49:54;;;;;;;7.00;1.90;;;14.40;99.90;;;;;;7313112;19;20185;-90
2023/09/25 03:52:20;;;;;;;5.80;1.70;;;14.40;99.90;;;;;;7317560;19;20177;-91
2023/09/25 03:54:57;;;;;;;5.87;1.97;;;14.40;99.90;;;;;;7305398;19;20185;-90
2023/09/25 03:57:29;;;;;;;4.30;1.70;;;14.50;99.90;;;;;;7296799;19;20654;-92
2023/09/25 03:59:54;;;;;;;6.33;1.80;;;14.50;99.90;;;;;;7298481;19;20199;-92
2023/09/25 04:02:23;;;;;;;6.50;2.17;;;14.60;99.90;;;;;;7295193;19;20281;-91
2023/09/25 04:04:49;;;;;;;5.77;1.93;;;14.60;99.90;;;;;;7293478;19;20198;-91
2023/09/25 04:07:15;;;;;;;5.57;2.00;;;14.60;99.90;;;;;;7295728;19;20213;-91
2023/09/25 04:09:42;;;;;;;7.00;1.97;;;14.50;99.90;;;;;;7293938;19;20190;-91
2023/09/25 04:12:08;;;;;;;6.60;1.97;;;14.40;99.90;;;;;;7295171;19;20190;-91
2023/09/25 04:14:35;;;;;;;6.60;2.50;;;14.50;99.90;;;;;;7295119;19;20220;-91
2023/09/25 04:17:02;;;;;;;7.40;2.40;;;14.50;99.90;;;;;;7295112;19;20193;-90
2023/09/25 04:19:29;;;;;;;5.07;2.20;;;14.40;99.90;;;;;;7316064;19;20621;-91
2023/09/25 04:21:55;;;;;;;5.70;2.20;;;14.30;99.90;;;;;;7296815;19;20192;-92
2023/09/25 04:24:20;;;;;;;7.43;2.47;;;14.20;99.90;;;;;;7296224;19;20643;-91
2023/09/25 04:26:48;;;;;;;6.50;2.10;;;14.20;99.90;;;;;;7299516;19;20192;-92
2023/09/25 04:29:19;;;;;;;7.23;2.33;;;14.30;99.90;;;;;;7296716;19;20193;-91
2023/09/25 04:31:46;;;;;;;8.57;2.43;;;14.40;99.90;;;;;;7300307;19;20199;-92
2023/09/25 04:34:12;;;;;;;6.43;2.20;;;14.40;99.90;;;;;;7309616;19;20205;-92
2023/09/25 04:36:39;;;;;;;6.50;2.23;;;14.40;99.90;;;;;;7309932;19;20198;-90
2023/09/25 04:39:04;;;;;;;9.47;2.53;;;14.40;99.90;;;;;;7306297;19;20211;-91
2023/09/25 04:41:31;;;;;;;7.30;2.30;;;14.40;99.90;;;;;;7308025;19;20197;-91
2023/09/25 04:43:57;;;;;;;6.10;2.30;;;14.40;99.90;;;;;;7318449;19;20283;-90
2023/09/25 04:46:23;;;;;;;6.97;2.43;;;14.40;99.90;;;;;;7294236;19;20595;-92
2023/09/25 04:48:51;;;;;;;8.50;2.30;;;14.50;99.90;;;;;;7292924;19;20275;-92
2023/09/25 04:51:20;;;;;;;6.40;2.70;;;14.40;99.90;;;;;;7292230;19;20260;-92
2023/09/25 04:53:46;;;;;;;7.43;2.27;;;14.30;99.90;;;;;;7294508;19;20222;-92
2023/09/25 04:56:21;;;;;;;8.40;2.37;;;14.20;99.90;;;;;;7293736;19;20200;-90
2023/09/25 04:58:50;;;;;;;8.27;2.50;;;14.20;99.90;;;;;;7306263;19;20197;-89
2023/09/25 05:01:16;;;;;;;5.37;2.20;;;14.20;99.90;;;;;;7313119;19;20189;-88
2023/09/25 05:03:42;;;;;;;7.90;2.87;;;14.20;99.90;;;;;;7316962;19;20225;-90
2023/09/25 05:06:10;;;;;;;7.33;2.67;;;14.10;99.90;;;;;;7317928;19;20204;-90
2023/09/25 05:08:38;;;;;;;7.33;2.70;;;14.10;99.90;;;;;;7318014;19;20201;-90
2023/09/25 05:11:07;;;;;;;5.57;2.23;;;14.20;99.90;;;;;;7317314;19;20213;-92
2023/09/25 05:13:34;;;;;;;6.30;2.30;;;14.20;99.90;;;;;;7312011;19;20194;-92
2023/09/25 05:16:03;;;;;;;8.50;2.67;;;14.20;99.90;;;;;;7325426;19;20213;-85
2023/09/25 05:18:30;;;;;;;6.97;2.60;;;14.00;99.90;;;;;;7311277;19;20232;-89
2023/09/25 05:20:58;;;;;;;8.33;2.80;;;13.90;99.90;;;;;;7316108;19;20205;-94
2023/09/25 05:23:24;;;;;;;8.50;3.00;;;14.00;99.90;;;;;;7314881;19;20211;-94
2023/09/25 05:25:50;;;;;;;8.07;3.03;;;14.00;99.90;;;;;;7307490;19;20215;-92
2023/09/25 05:28:16;;;;;;;7.83;2.90;;;14.00;99.90;;;;;;7307534;19;20201;-94
2023/09/25 05:30:43;;;;;;;6.90;2.60;;;14.00;99.90;;;;;;7307728;19;20188;-94
2023/09/25 05:33:19;;;;;;;10.10;2.60;;;14.00;99.90;;;;;;7300157;19;20181;-92
2023/09/25 05:35:45;;;;;;;7.53;2.70;;;14.10;99.90;;;;;;7294185;19;20188;-94
2023/09/25 05:38:11;;;;;;;10.23;2.83;;;14.10;99.90;;;;;;7294668;19;20202;-86
2023/09/25 05:40:38;;;;;;;8.20;2.77;;;14.10;99.90;;;;;;7287547;19;20188;-85
2023/09/25 05:43:05;;;;;;;7.47;2.90;;;14.00;99.90;;;;;;7288184;19;20200;-85
2023/09/25 05:45:32;;;;;;;9.10;2.93;;;14.00;99.90;;;;;;7292357;19;20195;-83
2023/09/25 05:47:58;;;;;;;6.67;2.77;;;14.00;99.90;;;;;;7310715;19;20197;-85
2023/09/25 05:50:26;;;;;;;8.30;2.90;;;14.10;99.90;;;;;;7287018;19;20527;-83
2023/09/25 05:52:54;;;;;;;8.27;2.60;;;14.20;99.90;;;;;;7287193;19;20193;-83
2023/09/25 05:55:20;;;;;;;9.43;2.60;;;14.20;99.90;;;;;;7288012;19;20214;-84
2023/09/25 05:57:46;;;;;;;6.70;2.70;;;14.30;99.90;;;;;;7286774;19;20185;-84
2023/09/25 06:00:12;;;;;;;8.20;2.40;;;14.20;99.90;;;;;;7287217;19;20207;-84
2023/09/25 06:02:42;;;;;;;8.13;2.20;;;14.20;99.90;;;;;;7287165;19;20213;-84
2023/09/25 06:05:09;;;;;;;6.03;2.20;;;14.30;99.90;;;;;;7287778;19;20254;-84
2023/09/25 06:07:35;;;;;;;9.17;2.43;;;14.40;99.90;;;;;;7287462;19;20184;-84
2023/09/25 06:10:04;;;;;;;5.70;2.50;;;14.50;99.90;;;;;;7289941;19;20564;-83
2023/09/25 06:12:35;;;;;;;10.20;2.67;;;14.50;99.90;;;;;;7302983;19;20198;-83
2023/09/25 06:15:01;;;;;;;6.80;2.23;;;14.50;99.90;;;;;;7294880;19;20189;-84
2023/09/25 06:17:27;;;;;;;5.73;2.10;;;14.40;99.90;;;;;;7308786;19;20309;-84
2023/09/25 06:19:54;;;;;;;6.33;2.13;;;14.50;99.90;;;;;;7288848;19;20656;-84
2023/09/25 06:22:22;;;;;;;6.07;2.20;;;14.60;99.90;;;;;;7287013;19;20198;-83
2023/09/25 06:24:51;;;;;;;6.23;2.07;;;14.60;99.90;;;;;;7288972;19;20196;-83
2023/09/25 06:27:17;;;;;;;5.03;2.00;;;14.80;99.90;;;;;;7287532;19;20593;-84
2023/09/25 06:29:45;;;;;;;6.40;1.83;;;15.10;99.90;;;;;;7287303;19;20198;-82
2023/09/25 06:32:11;;;;;;;7.03;2.17;;;15.20;99.90;;;;;;7287063;19;20190;-83
2023/09/25 06:34:39;;;;;;;6.07;2.00;;;15.40;99.90;;;;;;7287525;19;20512;-84
2023/09/25 06:37:05;;;;;;;4.67;1.80;;;16.30;99.90;;;;;;7286480;19;20181;-84
2023/09/25 06:39:33;;;;;;;5.90;1.50;;;17.70;99.90;;;;;;7286697;19;20191;-84
2023/09/25 06:42:00;;;;;;;4.90;1.60;;;18.20;99.90;;;;;;7309059;19;20177;-84
2023/09/25 06:44:25;;;;;;;5.07;1.87;;;17.90;99.90;;;;;;7285673;19;20173;-84
2023/09/25 06:46:54;;;;;;;4.73;1.70;;;18.00;99.90;;;;;;7287581;19;20197;-84
2023/09/25 06:49:20;;;;;;;5.40;1.90;;;18.20;99.90;;;;;;7286217;19;25616;-84
2023/09/25 06:51:49;;;;;;;5.70;2.13;;;18.10;99.90;;;;;;7285797;19;20195;-84
2023/09/25 06:54:14;;;;;;;6.30;1.70;;;18.20;99.90;;;;;;7285581;19;20190;-84
2023/09/25 06:56:40;;;;;;;5.40;1.50;;;18.20;99.90;;;;;;7285924;19;20733;-84
2023/09/25 06:59:06;;;;;;;5.73;1.77;;;18.40;99.90;;;;;;7285690;19;20610;-85
2023/09/25 07:01:32;;;;;;;5.00;1.73;;;18.70;99.90;;;;;;7286429;19;20612;-84
2023/09/25 07:03:58;;;;;;;7.20;2.17;;;18.90;99.90;;;;;;7307657;19;20189;-84
2023/09/25 07:06:24;;;;;;;4.20;1.70;;;18.90;99.90;;;;;;7293578;19;20191;-84
2023/09/25 07:08:50;;;;;;;4.73;1.60;;;19.40;99.90;;;;;;7291989;19;20197;-84
2023/09/25 07:11:19;;;;;;;5.73;1.67;;;19.50;99.90;;;;;;7291508;19;20228;-84
2023/09/25 07:13:45;;;;;;;6.47;1.70;;;19.60;99.90;;;;;;7292592;19;20195;-85
2023/09/25 07:16:10;;;;;;;8.83;2.10;;;19.40;99.90;;;;;;7292188;19;20593;-84
2023/09/25 07:18:37;;;;;;;7.53;2.00;;;19.20;99.90;;;;;;7290314;19;20667;-84
2023/09/25 07:21:05;;;;;;;8.27;1.67;;;19.40;99.90;;;;;;7292136;19;20677;-83
2023/09/25 07:23:31;;;;;;;4.40;1.50;;;19.60;99.90;;;;;;7304837;19;20552;-84
2023/09/25 07:26:04;;;;;;;6.13;1.70;;;20.10;99.90;;;;;;7311163;19;20190;-84
2023/09/25 07:28:30;;;;;;;8.40;2.03;;;20.10;99.90;;;;;;7290057;19;20186;-83
2023/09/25 07:30:58;;;;;;;7.37;1.83;;;20.10;99.90;;;;;;7301161;19;20215;-84
2023/09/25 07:33:23;;;;;;;4.13;1.43;;;20.60;99.90;;;;;;7292449;19;20189;-84
2023/09/25 07:35:49;;;;;;;4.13;1.63;;;21.20;99.90;;;;;;7291574;19;20306;-85
2023/09/25 07:38:15;;;;;;;4.77;1.60;;;22.00;99.90;;;;;;7291738;19;20227;-85
2023/09/25 07:40:41;;;;;;;4.40;1.30;;;23.90;99.90;;;;;;7291109;19;20193;-85
2023/09/25 07:43:07;;;;;;;4.23;1.83;;;24.40;99.90;;;;;;7290579;19;20180;-84
2023/09/25 07:45:33;;;;;;;5.37;1.50;;;24.50;99.90;;;;;;7291960;19;20196;-85
2023/09/25 07:47:59;;;;;;;3.57;1.57;;;24.50;99.90;;;;;;7314055;19;20180;-84
2023/09/25 07:50:25;;;;;;;4.10;1.70;;;24.00;99.90;;;;;;7290305;19;20189;-85
2023/09/25 07:52:54;;;;;;;5.57;1.60;;;23.50;99.90;;;;;;7289444;19;20579;-85
2023/09/25 07:55:23;;;;;;;5.07;1.80;;;23.00;99.90;;;;;;7290686;19;20193;-85
2023/09/25 07:57:50;;;;;;;3.80;1.63;;;22.40;99.90;;;;;;7290496;19;20189;-85
2023/09/25 08:00:24;;;;;;;3.80;1.17;;;21.70;99.90;;;;;;7291010;19;20197;-84
2023/09/25 08:02:52;;;;;;;5.77;1.50;;;21.80;99.90;;;;;;7291156;19;20188;-85
2023/09/25 08:05:19;;;;;;;4.50;1.37;;;21.70;99.90;;;;;;7290167;19;20199;-85
2023/09/25 08:07:52;;;;;;;4.07;1.40;;;22.10;99.90;;;;;;7290412;19;20199;-85
2023/09/25 08:10:18;;;;;;;6.20;1.67;;;22.70;99.90;;;;;;7290367;19;20197;-85
2023/09/25 08:12:49;;;;;;;4.67;1.70;;;23.00;99.90;;;;;;7290073;19;20689;-85
2023/09/25 08:15:15;;;;;;;4.57;1.67;;;23.50;99.90;;;;;;7290375;19;20193;-85
2023/09/25 08:17:45;;;;;;;3.97;1.40;;;23.70;99.90;;;;;;7288714;19;20204;-85
2023/09/25 08:20:17;;;;;;;6.53;1.40;;;25.10;99.90;;;;;;7291136;19;20244;-85
2023/09/25 08:22:44;;;;;;;3.60;1.50;;;24.80;99.90;;;;;;7291758;19;20200;-85
2023/09/25 08:25:10;;;;;;;3.97;1.53;;;24.70;99.90;;;;;;7290326;19;20177;-84
2023/09/25 08:27:37;;;;;;;7.10;1.50;;;25.70;99.90;;;;;;7289818;19;20193;-85
2023/09/25 08:30:04;;;;;;;4.15;1.42;;;26.60;99.90;;;;;;7289906;19;20198;-85
2023/09/25 08:32:31;;;;;;;6.45;1.80;;;26.30;99.90;;;;;;7311316;19;20189;-85
2023/09/25 08:34:58;;;;;;;4.28;1.48;;;26.60;98.90;;;;;;7289781;19;20181;-85
2023/09/25 08:37:24;;;;;;;6.40;1.45;;;26.20;99.80;;;;;;7289738;19;20230;-84
2023/09/25 08:39:54;;;;;;;8.00;1.70;;;25.60;99.70;;;;;;7290957;19;20551;-85
2023/09/25 08:42:24;;;;;;;6.20;1.60;;;25.20;99.90;;;;;;7292646;19;20320;-85
2023/09/25 08:44:59;;;;;;;6.23;1.50;;;24.80;99.90;;;;;;7294727;19;20204;-85
2023/09/25 08:47:25;;;;;;;4.47;1.70;;;24.60;99.90;;;;;;7291457;19;20228;-84
2023/09/25 08:49:52;;;;;;;6.00;1.73;;;24.00;99.90;;;;;;7293438;19;20201;-84
2023/09/25 08:52:21;;;;;;;7.43;1.53;;;23.50;99.90;;;;;;7293027;19;20193;-85
2023/09/25 08:54:51;;;;;;;5.20;1.60;;;23.40;99.90;;;;;;7291455;19;20234;-85
2023/09/25 08:57:18;;;;;;;6.73;1.50;;;22.90;99.90;;;;;;7289116;19;20192;-85
2023/09/25 08:59:46;;;;;;;5.47;1.50;;;22.80;99.90;;;;;;7289529;19;20211;-85
2023/09/25 09:02:13;;;;;;;5.93;1.90;;;22.60;99.90;;;;;;7289438;19;20201;-85
2023/09/25 09:04:39;;;;;;;7.23;1.73;;;22.60;99.90;;;;;;7288786;19;20189;-85
2023/09/25 09:07:08;;;;;;;4.43;1.33;;;22.70;99.90;;;;;;7287736;19;20189;-84
2023/09/25 09:09:34;;;;;;;7.43;1.60;;;22.70;99.90;;;;;;7289002;19;20176;-86
2023/09/25 09:12:01;;;;;;;6.43;1.50;;;22.60;99.90;;;;;;7310091;19;20199;-85
2023/09/25 09:14:40;;;;;;;6.73;1.97;;;22.70;99.90;;;;;;7288697;19;20210;-86
2023/09/25 09:17:06;;;;;;;4.77;1.40;;;22.90;99.90;;;;;;7184862;19;2006203;-85
2023/09/25 09:19:44;;;;;;;4.63;1.47;;;22.90;99.90;;;;;;7289416;19;20729;-84
2023/09/25 09:22:10;;;;;;;5.10;1.60;;;22.80;99.90;;;;;;7287554;19;20309;-85
2023/09/25 09:24:39;;;;;;;4.80;1.67;;;23.10;99.90;;;;;;7286867;19;20189;-84
2023/09/25 09:27:09;;;;;;;4.93;1.40;;;23.30;99.90;;;;;;7287907;19;20193;-85
2023/09/25 09:29:43;;;;;;;4.20;1.30;;;23.60;99.90;;;;;;7287894;19;20543;-84
2023/09/25 09:32:10;;;;;;;5.20;1.30;;;23.70;99.90;;;;;;7289563;19;20195;-84
2023/09/25 09:34:36;;;;;;;4.57;1.80;;;23.90;99.90;;;;;;7289354;19;20185;-85
2023/09/25 09:37:02;;;;;;;4.90;1.43;;;23.90;99.90;;;;;;7289691;19;20188;-85
2023/09/25 09:39:34;;;;;;;4.33;1.50;;;24.10;99.90;;;;;;7311241;19;20180;-85
2023/09/25 09:42:05;;;;;;;5.70;1.50;;;23.70;99.90;;;;;;7291141;19;20192;-85
2023/09/25 09:44:32;;;;;;;7.67;1.60;;;23.80;99.90;;;;;;7285031;19;20721;-84
2023/09/25 09:47:05;;;;;;;7.37;1.83;;;24.10;99.90;;;;;;7313194;19;20198;-85
2023/09/25 09:49:33;;;;;;;5.07;1.52;;;25.20;99.90;;;;;;7289815;19;20623;-85
2023/09/25 09:52:04;;;;;;;6.60;1.88;;;26.30;99.90;;;;;;7289851;19;20670;-84
2023/09/25 09:54:40;;;;;;;4.22;1.92;;;27.30;99.90;;;;;;7288589;19;20192;-85
2023/09/25 09:57:07;;;;;;;6.47;1.80;;;26.70;98.90;;;;;;7184569;19;2004672;-85
2023/09/25 09:59:33;;;;;;;5.47;1.70;;;27.20;97.90;;;;;;7288876;19;20201;-86
2023/09/25 10:02:00;;;;;;;5.30;1.55;;;27.70;95.60;;;;;;7309157;19;20196;-85
2023/09/25 10:04:27;;;;;;;5.82;1.83;;;28.60;94.60;;;;;;7286778;19;20200;-86
2023/09/25 10:06:58;;;;;;;4.40;1.48;;;28.10;92.80;;;;;;7287406;19;20192;-85
2023/09/25 10:09:26;;;;;;;4.97;1.70;;;28.20;93.00;;;;;;7288534;19;20184;-85
2023/09/25 10:11:56;;;;;;;5.28;2.00;;;28.20;92.40;;;;;;7285556;19;20203;-86
2023/09/25 10:14:23;;;;;;;4.88;1.60;;;27.70;92.80;;;;;;7288062;19;20225;-85
2023/09/25 10:17:06;;;;;;;3.83;1.75;;;27.90;93.60;;;;;;7285509;19;20189;-85
2023/09/25 10:19:37;;;;;;;5.28;1.98;;;28.70;91.60;;;;;;7279590;19;20193;-85
2023/09/25 10:22:09;;;;;;;3.25;1.25;;;29.90;91.50;;;;;;7288559;19;20192;-85
2023/09/25 10:24:35;;;;;;;4.13;1.73;;;30.20;88.00;;;;;;7287061;19;20193;-85
2023/09/25 10:27:03;;;;;;;4.88;1.50;;;30.70;85.60;;;;;;7308618;19;20218;-84
2023/09/25 10:29:29;;;;;;;4.55;1.40;;;30.90;84.10;;;;;;7310148;19;20303;-85
2023/09/25 10:31:56;;;;;;;3.17;1.38;;;31.10;81.80;;;;;;7288200;19;20671;-85
2023/09/25 10:34:22;;;;;;;4.40;1.38;;;31.40;81.20;;;;;;7287071;19;20193;-85
2023/09/25 10:36:50;;;;;;;3.10;1.40;;;31.50;80.50;;;;;;7285068;19;20660;-86
2023/09/25 10:39:17;;;;;;;4.18;1.40;;;31.40;77.90;;;;;;7285625;19;20189;-85
2023/09/25 10:41:47;;;;;;;3.67;1.50;;;31.40;78.40;;;;;;7288054;19;20208;-86
2023/09/25 10:44:15;;;;;;;4.28;1.20;;;31.20;79.50;;;;;;7285177;19;20203;-85
2023/09/25 10:46:41;;;;;;;5.15;1.92;;;31.10;77.90;;;;;;7285473;19;20221;-85
2023/09/25 10:49:08;;;;;;;3.60;1.30;;;31.50;78.70;;;;;;7286713;19;20188;-85
2023/09/25 10:51:35;;;;;;;4.05;1.50;;;32.70;79.30;;;;;;7285164;19;20723;-85
2023/09/25 10:54:02;;;;;;;4.97;1.85;;;32.60;74.50;;;;;;7304049;19;20185;-85
2023/09/25 10:56:28;;;;;;;5.07;1.60;;;32.20;72.30;;;;;;7308815;19;20208;-86
2023/09/25 10:58:55;;;;;;;4.95;1.30;;;32.00;73.90;;;;;;7284756;19;20647;-86
2023/09/25 11:01:31;;;;;;;3.70;1.65;;;32.50;76.00;;;;;;7286610;19;20190;-86
2023/09/25 11:04:01;;;;;;;2.30;1.30;;;33.20;74.50;;;;;;7286634;19;20189;-85
2023/09/25 11:06:27;;;;;;;3.55;1.60;;;33.90;69.80;;;;;;7285315;19;20185;-86
2023/09/25 11:09:03;;;;;;;4.20;1.50;;;31.70;69.80;;;;;;7286637;19;20192;-85
2023/09/25 11:11:30;;;;;;;5.00;1.63;;;30.10;73.70;;;;;;7286693;19;20195;-84
2023/09/25 11:13:56;;;;;;;4.18;1.35;;;29.80;76.60;;;;;;7288430;19;20188;-84
2023/09/25 11:16:24;;;;;;;4.07;1.60;;;30.50;77.10;;;;;;7288344;19;20695;-84
2023/09/25 11:19:02;;;;;;;3.40;1.30;;;31.60;78.20;;;;;;7286818;19;20214;-83
2023/09/25 11:21:31;;;;;;;3.92;1.40;;;32.40;73.00;;;;;;7287286;19;20284;-84
2023/09/25 11:23:57;;;;;;;4.40;1.45;;;33.30;73.30;;;;;;7286323;19;20193;-85
2023/09/25 11:26:27;;;;;;;3.40;1.40;;;34.10;71.10;;;;;;7285324;19;20197;-85
2023/09/25 11:28:57;;;;;;;5.57;1.60;;;34.20;68.30;;;;;;7289564;19;20200;-85
2023/09/25 11:31:26;;;;;;;5.15;1.50;;;34.50;67.40;;;;;;7286001;19;21096;-86
2023/09/25 11:33:52;;;;;;;2.70;1.40;;;35.10;66.20;;;;;;7287662;19;20202;-85
2023/09/25 11:36:19;;;;;;;4.43;1.63;;;35.00;62.90;;;;;;7285769;19;20184;-85
2023/09/25 11:38:52;;;;;;;5.03;1.60;;;34.60;64.20;;;;;;7285630;19;20268;-85
2023/09/25 11:41:18;;;;;;;6.78;1.70;;;34.70;66.10;;;;;;7287413;19;20211;-85
2023/09/25 11:43:43;;;;;;;6.13;1.85;;;34.70;62.60;;;;;;7288632;19;20625;-85
2023/09/25 11:46:09;;;;;;;3.42;1.50;;;34.80;61.60;;;;;;7290717;19;20193;-85
2023/09/25 11:48:38;;;;;;;4.10;1.30;;;34.40;61.70;;;;;;7288619;19;20656;-84
2023/09/25 11:51:03;;;;;;;4.57;1.70;;;33.70;62.50;;;;;;7289432;19;20200;-84
2023/09/25 11:53:29;;;;;;;4.93;1.75;;;33.80;63.90;;;;;;7317759;19;20197;-84
2023/09/25 11:55:55;;;;;;;3.53;1.52;;;33.00;63.90;;;;;;7297439;19;20193;-85
2023/09/25 11:58:21;;;;;;;5.68;1.80;;;33.00;64.10;;;;;;7298015;19;20197;-85
2023/09/25 12:00:47;;;;;;;5.38;1.77;;;33.40;66.50;;;;;;7297976;19;20229;-84
2023/09/25 12:03:13;;;;;;;4.50;1.70;;;33.50;66.90;;;;;;7296938;19;20193;-85
2023/09/25 12:05:39;;;;;;;6.13;1.90;;;33.90;63.50;;;;;;7296594;19;20192;-85
2023/09/25 12:08:10;;;;;;;4.90;1.75;;;33.50;64.90;;;;;;7296120;19;20192;-85
2023/09/25 12:10:39;;;;;;;4.38;1.77;;;33.60;65.70;;;;;;7295191;19;20213;-85
2023/09/25 12:13:06;;;;;;;4.63;2.05;;;33.10;63.40;;;;;;7295744;19;20651;-84
2023/09/25 12:15:31;;;;;;;5.70;2.15;;;32.90;66.40;;;;;;7314149;19;20181;-84
2023/09/25 12:17:57;;;;;;;5.15;2.03;;;32.80;66.80;;;;;;7307008;19;20676;-85
2023/09/25 12:20:23;;;;;;;5.88;1.73;;;33.00;64.30;;;;;;7294262;19;20268;-85
2023/09/25 12:22:52;;;;;;;6.20;2.00;;;33.80;66.30;;;;;;7293997;19;20655;-85
2023/09/25 12:25:19;;;;;;;5.90;2.30;;;34.00;64.30;;;;;;7295625;19;20189;-84
2023/09/25 12:27:45;;;;;;;5.70;2.20;;;34.20;65.00;;;;;;7294793;19;20193;-86
2023/09/25 12:30:16;;;;;;;5.95;2.20;;;34.70;64.70;;;;;;7294324;19;20177;-85
2023/09/25 12:32:43;;;;;;;5.13;1.95;;;34.90;64.00;;;;;;7295324;19;20204;-85
2023/09/25 12:35:14;;;;;;;5.22;1.98;;;34.70;63.10;;;;;;7296172;19;20313;-85
2023/09/25 12:37:43;;;;;;;7.50;1.95;;;34.90;62.30;;;;;;7292902;19;20197;-85
2023/09/25 12:40:10;;;;;;;5.10;2.30;;;34.30;62.00;;;;;;7292911;19;20200;-84
2023/09/25 12:42:36;;;;;;;6.15;2.20;;;34.30;61.50;;;;;;7290005;19;20180;-84
2023/09/25 12:45:04;;;;;;;5.85;2.00;;;34.30;62.70;;;;;;7301572;19;20202;-84
2023/09/25 12:47:30;;;;;;;5.28;1.85;;;34.10;62.60;;;;;;7313381;19;20185;-85